MSC Kim — 3EPZ — position and weather

sailwx.info

Track history (hours):
 
Tides and Currents Weather Stations Pressure Air Temp Water Temp Dewpoint Dewpoint Depression Visibility Wind Speed Wind Dir Waves Ship Positions

MSC Kim

Last reported at 2018-Jan-12 05:50 UTC. Time now 2018-Jan-20 18:30 UTC.
Position N 45°35' W 073°30'.
Warning: this ship's position is 8 days out of date.

Length 265 m; draft 10.5 m.

Type: Ship (hazmat cat A). MMSI: 356205000.

Date/timePositionNaut miles runAvg speedWind from/ knotsBaromVisibWave heightAir tempDewpointWater temp
2018-Jan-12 05:50N 45°35' W 073°30'  
2018-Jan-05 04:33N 39°56' W 029°12'414.7
2018-Jan-05 04:17N 39°55' W 029°07'414.9
2018-Jan-05 04:00N 39°55' W 029°01'815.1
2018-Jan-05 03:30N 39°54' W 028°52'815.2
2018-Jan-05 03:00N 39°53' W 028°42'815.2
2018-Jan-05 02:30N 39°52' W 028°32'815.0
2018-Jan-05 02:00N 39°51' W 028°22'714.6
2018-Jan-05 01:30N 39°50' W 028°13'914.5
2018-Jan-05 00:54N 39°49' W 028°02'614.4
2018-Jan-05 00:28N 39°48' W 027°53'  
2018-Jan-02 18:32N 38°05' W 010°35'518.7
2018-Jan-02 18:18N 38°04' W 010°29'619.1
2018-Jan-02 18:00N 38°04' W 010°22'918.9
2018-Jan-02 17:30N 38°02' W 010°10'1018.9
2018-Jan-02 16:58N 38°01' W 009°58'918.8
2018-Jan-02 16:30N 38°00' W 009°47'918.2
2018-Jan-02 16:00N 37°59' W 009°35'918.7
2018-Jan-02 15:30N 37°57' W 009°23'1019.0
2018-Jan-02 15:00N 37°56' W 009°11'1019.2
2018-Jan-02 14:30N 37°54' W 008°59'714.3
2018-Jan-02 14:00N 37°55' W 008°51'1 1.1
2018-Jan-02 13:30N 37°56' W 008°51'0 0.0
2018-Jan-02 13:00N 37°56' W 008°51'0 0.0
2018-Jan-02 12:30N 37°56' W 008°51'0 0.0
2018-Jan-02 12:00N 37°56' W 008°51'0 0.0
2018-Jan-02 11:30N 37°56' W 008°51'0 0.0
2018-Jan-02 11:00N 37°56' W 008°51'0 0.0
2018-Jan-02 10:30N 37°56' W 008°51'0 0.0
2018-Jan-02 10:00N 37°56' W 008°51'0 0.0
2018-Jan-02 09:30N 37°56' W 008°51'0 0.0
2018-Jan-02 08:30N 37°56' W 008°51'0 0.0
2018-Jan-02 08:00N 37°56' W 008°51'0 0.0
2018-Jan-02 07:28N 37°56' W 008°51'0 0.0
2018-Jan-02 06:55N 37°56' W 008°51'0 0.0
2018-Jan-02 06:28N 37°56' W 008°51'0 0.0
2018-Jan-02 05:58N 37°56' W 008°51'  
Track history (hours):
 
Tides and Currents Weather Stations Pressure Air Temp Water Temp Dewpoint Dewpoint Depression Visibility Wind Speed Wind Dir Waves Ship Positions

MSC Kim

Last reported at 2018-Jan-12 05:50 UTC. Time now 2018-Jan-20 18:30 UTC.
Position N 45°35' W 073°30'.
Warning: this ship's position is 8 days out of date.

Length 265 m; draft 10.5 m.

Type: Ship (hazmat cat A). MMSI: 356205000.

Date/timePositionNaut miles runAvg speedWind from/ knotsBaromVisibWave heightAir tempDewpointWater temp
2018-Jan-12 05:50N 45°35' W 073°30'  
2018-Jan-05 04:33N 39°56' W 029°12'414.7
2018-Jan-05 04:17N 39°55' W 029°07'414.9
2018-Jan-05 04:00N 39°55' W 029°01'815.1
2018-Jan-05 03:30N 39°54' W 028°52'815.2
2018-Jan-05 03:00N 39°53' W 028°42'815.2
2018-Jan-05 02:30N 39°52' W 028°32'815.0
2018-Jan-05 02:00N 39°51' W 028°22'714.6
2018-Jan-05 01:30N 39°50' W 028°13'914.5
2018-Jan-05 00:54N 39°49' W 028°02'614.4
2018-Jan-05 00:28N 39°48' W 027°53'  
2018-Jan-02 18:32N 38°05' W 010°35'518.7
2018-Jan-02 18:18N 38°04' W 010°29'619.1
2018-Jan-02 18:00N 38°04' W 010°22'918.9
2018-Jan-02 17:30N 38°02' W 010°10'1018.9
2018-Jan-02 16:58N 38°01' W 009°58'918.8
2018-Jan-02 16:30N 38°00' W 009°47'918.2
2018-Jan-02 16:00N 37°59' W 009°35'918.7
2018-Jan-02 15:30N 37°57' W 009°23'1019.0
2018-Jan-02 15:00N 37°56' W 009°11'1019.2
2018-Jan-02 14:30N 37°54' W 008°59'714.3
2018-Jan-02 14:00N 37°55' W 008°51'1 1.1
2018-Jan-02 13:30N 37°56' W 008°51'0 0.0
2018-Jan-02 13:00N 37°56' W 008°51'0 0.0
2018-Jan-02 12:30N 37°56' W 008°51'0 0.0
2018-Jan-02 12:00N 37°56' W 008°51'0 0.0
2018-Jan-02 11:30N 37°56' W 008°51'0 0.0
2018-Jan-02 11:00N 37°56' W 008°51'0 0.0
2018-Jan-02 10:30N 37°56' W 008°51'0 0.0
2018-Jan-02 10:00N 37°56' W 008°51'0 0.0
2018-Jan-02 09:30N 37°56' W 008°51'0 0.0
2018-Jan-02 08:30N 37°56' W 008°51'0 0.0
2018-Jan-02 08:00N 37°56' W 008°51'0 0.0
2018-Jan-02 07:28N 37°56' W 008°51'0 0.0
2018-Jan-02 06:55N 37°56' W 008°51'0 0.0
2018-Jan-02 06:28N 37°56' W 008°51'0 0.0
2018-Jan-02 05:58N 37°56' W 008°51'  

Dump ship's entire track history